sensor_id;sensor_type;location;lat;lon;timestamp;temperature;humidity
29341;DHT22;16337;59.536;13.468;2022-12-24T00:01:34;-8.80;99.90
29341;DHT22;16337;59.536;13.468;2022-12-24T00:04:00;-8.70;99.90
29341;DHT22;16337;59.536;13.468;2022-12-24T00:06:25;-8.70;99.90
29341;DHT22;16337;59.536;13.468;2022-12-24T00:08:51;-8.70;99.90
29341;DHT22;16337;59.536;13.468;2022-12-24T00:11:18;-8.80;99.90
29341;DHT22;16337;59.536;13.468;2022-12-24T00:13:44;-8.80;99.90
29341;DHT22;16337;59.536;13.468;2022-12-24T00:16:10;-8.80;99.90
29341;DHT22;16337;59.536;13.468;2022-12-24T00:18:35;-8.90;99.90
29341;DHT22;16337;59.536;13.468;2022-12-24T00:21:01;-8.90;99.90
29341;DHT22;16337;59.536;13.468;2022-12-24T00:23:28;-9.00;99.90
29341;DHT22;16337;59.536;13.468;2022-12-24T00:25:54;-9.00;99.90
29341;DHT22;16337;59.536;13.468;2022-12-24T00:28:21;-9.00;99.90
29341;DHT22;16337;59.536;13.468;2022-12-24T00:30:46;-9.00;99.90
29341;DHT22;16337;59.536;13.468;2022-12-24T00:33:12;-9.00;99.90
29341;DHT22;16337;59.536;13.468;2022-12-24T00:35:39;-9.10;99.90
29341;DHT22;16337;59.536;13.468;2022-12-24T00:38:05;-9.00;99.90
29341;DHT22;16337;59.536;13.468;2022-12-24T00:40:32;-9.10;99.90
29341;DHT22;16337;59.536;13.468;2022-12-24T00:42:58;-9.10;99.90
29341;DHT22;16337;59.536;13.468;2022-12-24T00:45:24;-9.10;99.90
29341;DHT22;16337;59.536;13.468;2022-12-24T00:47:52;-9.10;99.90
29341;DHT22;16337;59.536;13.468;2022-12-24T00:50:18;-9.20;99.90
29341;DHT22;16337;59.536;13.468;2022-12-24T00:52:44;-9.20;99.90
29341;DHT22;16337;59.536;13.468;2022-12-24T00:55:09;-9.30;99.90
29341;DHT22;16337;59.536;13.468;2022-12-24T00:57:35;-9.30;99.90
29341;DHT22;16337;59.536;13.468;2022-12-24T01:00:01;-9.30;99.90
29341;DHT22;16337;59.536;13.468;2022-12-24T01:02:27;-9.30;99.90
29341;DHT22;16337;59.536;13.468;2022-12-24T01:04:52;-9.20;99.90
29341;DHT22;16337;59.536;13.468;2022-12-24T01:07:38;-9.20;99.90
29341;DHT22;16337;59.536;13.468;2022-12-24T01:10:06;-9.20;99.90
29341;DHT22;16337;59.536;13.468;2022-12-24T01:12:32;-9.20;99.90
29341;DHT22;16337;59.536;13.468;2022-12-24T01:14:58;-9.20;99.90
29341;DHT22;16337;59.536;13.468;2022-12-24T01:17:24;-9.20;99.90
29341;DHT22;16337;59.536;13.468;2022-12-24T01:19:49;-9.20;99.90
29341;DHT22;16337;59.536;13.468;2022-12-24T01:22:15;-9.20;99.90
29341;DHT22;16337;59.536;13.468;2022-12-24T01:24:41;-9.20;99.90
29341;DHT22;16337;59.536;13.468;2022-12-24T01:27:07;-9.30;99.90
29341;DHT22;16337;59.536;13.468;2022-12-24T01:29:33;-9.30;99.90
29341;DHT22;16337;59.536;13.468;2022-12-24T01:31:58;-9.30;99.90
29341;DHT22;16337;59.536;13.468;2022-12-24T01:34:24;-9.40;99.90
29341;DHT22;16337;59.536;13.468;2022-12-24T01:36:50;-9.40;99.90
29341;DHT22;16337;59.536;13.468;2022-12-24T01:39:16;-9.50;99.90
29341;DHT22;16337;59.536;13.468;2022-12-24T01:41:42;-9.50;99.90
29341;DHT22;16337;59.536;13.468;2022-12-24T01:47:23;-9.50;99.90
29341;DHT22;16337;59.536;13.468;2022-12-24T01:49:59;-9.50;99.90
29341;DHT22;16337;59.536;13.468;2022-12-24T01:52:31;-9.50;99.90
29341;DHT22;16337;59.536;13.468;2022-12-24T01:55:09;-9.50;99.90
29341;DHT22;16337;59.536;13.468;2022-12-24T01:57:44;-9.50;99.90
29341;DHT22;16337;59.536;13.468;2022-12-24T02:00:13;-9.50;99.90
29341;DHT22;16337;59.536;13.468;2022-12-24T02:02:43;-9.50;99.90
29341;DHT22;16337;59.536;13.468;2022-12-24T02:05:26;-9.60;99.90
29341;DHT22;16337;59.536;13.468;2022-12-24T02:07:54;-9.60;99.90
29341;DHT22;16337;59.536;13.468;2022-12-24T02:10:21;-9.60;99.90
29341;DHT22;16337;59.536;13.468;2022-12-24T02:12:48;-9.60;99.90
29341;DHT22;16337;59.536;13.468;2022-12-24T02:15:16;-9.60;99.90
29341;DHT22;16337;59.536;13.468;2022-12-24T02:31:51;-9.60;99.90
29341;DHT22;16337;59.536;13.468;2022-12-24T02:34:29;-9.60;99.90
29341;DHT22;16337;59.536;13.468;2022-12-24T02:37:01;-9.60;99.90
29341;DHT22;16337;59.536;13.468;2022-12-24T02:39:48;-9.50;99.90
29341;DHT22;16337;59.536;13.468;2022-12-24T02:42:19;-9.50;99.90
29341;DHT22;16337;59.536;13.468;2022-12-24T02:44:52;-9.50;99.90
29341;DHT22;16337;59.536;13.468;2022-12-24T02:47:23;-9.50;99.90
29341;DHT22;16337;59.536;13.468;2022-12-24T02:49:50;-9.50;99.90
29341;DHT22;16337;59.536;13.468;2022-12-24T02:52:34;-9.60;99.90
29341;DHT22;16337;59.536;13.468;2022-12-24T02:55:34;-9.60;99.90
29341;DHT22;16337;59.536;13.468;2022-12-24T03:03:33;-9.90;99.90
29341;DHT22;16337;59.536;13.468;2022-12-24T03:06:21;-9.90;99.90
29341;DHT22;16337;59.536;13.468;2022-12-24T03:08:57;-9.90;99.90
29341;DHT22;16337;59.536;13.468;2022-12-24T03:11:25;-9.90;99.90
29341;DHT22;16337;59.536;13.468;2022-12-24T03:13:52;-9.90;99.90
29341;DHT22;16337;59.536;13.468;2022-12-24T03:16:23;-9.90;99.90
29341;DHT22;16337;59.536;13.468;2022-12-24T03:18:51;-9.90;99.90
29341;DHT22;16337;59.536;13.468;2022-12-24T03:21:30;-9.80;99.90
29341;DHT22;16337;59.536;13.468;2022-12-24T03:23:58;-9.90;99.90
29341;DHT22;16337;59.536;13.468;2022-12-24T03:26:24;-9.90;99.90
29341;DHT22;16337;59.536;13.468;2022-12-24T03:28:51;-9.90;99.90
29341;DHT22;16337;59.536;13.468;2022-12-24T03:31:18;-9.90;99.90
29341;DHT22;16337;59.536;13.468;2022-12-24T03:33:45;-10.00;99.90
29341;DHT22;16337;59.536;13.468;2022-12-24T03:36:11;-10.00;99.90
29341;DHT22;16337;59.536;13.468;2022-12-24T03:38:37;-10.00;99.90
29341;DHT22;16337;59.536;13.468;2022-12-24T03:41:03;-10.10;99.90
29341;DHT22;16337;59.536;13.468;2022-12-24T03:43:32;-10.10;99.90
29341;DHT22;16337;59.536;13.468;2022-12-24T03:46:03;-10.10;99.90
29341;DHT22;16337;59.536;13.468;2022-12-24T03:48:29;-10.10;99.90
29341;DHT22;16337;59.536;13.468;2022-12-24T03:50:55;-10.10;99.90
29341;DHT22;16337;59.536;13.468;2022-12-24T03:53:21;-10.10;99.90
29341;DHT22;16337;59.536;13.468;2022-12-24T03:55:46;-10.20;99.90
29341;DHT22;16337;59.536;13.468;2022-12-24T03:58:12;-10.20;99.90
29341;DHT22;16337;59.536;13.468;2022-12-24T04:00:38;-10.30;99.90
29341;DHT22;16337;59.536;13.468;2022-12-24T04:03:03;-10.30;99.90
29341;DHT22;16337;59.536;13.468;2022-12-24T04:05:29;-10.30;99.90
29341;DHT22;16337;59.536;13.468;2022-12-24T04:07:58;-10.40;99.90
29341;DHT22;16337;59.536;13.468;2022-12-24T04:10:26;-10.30;99.90
29341;DHT22;16337;59.536;13.468;2022-12-24T04:12:54;-10.30;99.90
29341;DHT22;16337;59.536;13.468;2022-12-24T04:15:20;-10.30;99.90
29341;DHT22;16337;59.536;13.468;2022-12-24T04:17:46;-10.40;99.90
29341;DHT22;16337;59.536;13.468;2022-12-24T04:20:12;-10.40;99.90
29341;DHT22;16337;59.536;13.468;2022-12-24T04:22:37;-10.40;99.90
29341;DHT22;16337;59.536;13.468;2022-12-24T04:25:03;-10.40;99.90
29341;DHT22;16337;59.536;13.468;2022-12-24T04:27:29;-10.40;99.90
29341;DHT22;16337;59.536;13.468;2022-12-24T04:29:55;-10.40;99.90
29341;DHT22;16337;59.536;13.468;2022-12-24T04:32:24;-10.40;99.90
29341;DHT22;16337;59.536;13.468;2022-12-24T04:34:50;-10.40;99.90
29341;DHT22;16337;59.536;13.468;2022-12-24T04:37:16;-10.40;99.90
29341;DHT22;16337;59.536;13.468;2022-12-24T04:39:42;-10.40;99.90
29341;DHT22;16337;59.536;13.468;2022-12-24T04:42:07;-10.40;99.90
29341;DHT22;16337;59.536;13.468;2022-12-24T04:44:33;-10.40;99.90
29341;DHT22;16337;59.536;13.468;2022-12-24T04:46:59;-10.40;99.90
29341;DHT22;16337;59.536;13.468;2022-12-24T04:49:25;-10.40;99.90
29341;DHT22;16337;59.536;13.468;2022-12-24T04:51:50;-10.40;99.90
29341;DHT22;16337;59.536;13.468;2022-12-24T04:54:16;-10.30;99.90
29341;DHT22;16337;59.536;13.468;2022-12-24T04:56:42;-10.30;99.90
29341;DHT22;16337;59.536;13.468;2022-12-24T04:59:08;-10.20;99.90
29341;DHT22;16337;59.536;13.468;2022-12-24T05:01:34;-10.20;99.90
29341;DHT22;16337;59.536;13.468;2022-12-24T05:04:02;-10.20;99.90
29341;DHT22;16337;59.536;13.468;2022-12-24T05:06:33;-10.20;99.90
29341;DHT22;16337;59.536;13.468;2022-12-24T05:08:59;-10.30;99.90
29341;DHT22;16337;59.536;13.468;2022-12-24T05:11:25;-10.30;99.90
29341;DHT22;16337;59.536;13.468;2022-12-24T05:13:57;-10.40;99.90
29341;DHT22;16337;59.536;13.468;2022-12-24T05:16:23;-10.40;99.90
29341;DHT22;16337;59.536;13.468;2022-12-24T05:18:50;-10.40;99.90
29341;DHT22;16337;59.536;13.468;2022-12-24T05:21:21;-10.40;99.90
29341;DHT22;16337;59.536;13.468;2022-12-24T05:23:47;-10.40;99.90
29341;DHT22;16337;59.536;13.468;2022-12-24T05:26:52;-10.40;99.90
29341;DHT22;16337;59.536;13.468;2022-12-24T05:29:17;-10.40;99.90
29341;DHT22;16337;59.536;13.468;2022-12-24T05:31:44;-10.40;99.90
29341;DHT22;16337;59.536;13.468;2022-12-24T05:34:11;-10.40;99.90
29341;DHT22;16337;59.536;13.468;2022-12-24T05:36:37;-10.40;99.90
29341;DHT22;16337;59.536;13.468;2022-12-24T05:39:03;-10.50;99.90
29341;DHT22;16337;59.536;13.468;2022-12-24T05:41:29;-10.60;99.90
29341;DHT22;16337;59.536;13.468;2022-12-24T05:43:55;-10.60;99.90
29341;DHT22;16337;59.536;13.468;2022-12-24T05:46:22;-10.60;99.90
29341;DHT22;16337;59.536;13.468;2022-12-24T05:48:49;-10.60;99.90
29341;DHT22;16337;59.536;13.468;2022-12-24T05:51:17;-10.60;99.90
29341;DHT22;16337;59.536;13.468;2022-12-24T05:53:44;-10.60;99.90
29341;DHT22;16337;59.536;13.468;2022-12-24T05:56:19;-10.60;99.90
29341;DHT22;16337;59.536;13.468;2022-12-24T05:58:46;-10.60;99.90
29341;DHT22;16337;59.536;13.468;2022-12-24T06:01:12;-10.60;99.90
29341;DHT22;16337;59.536;13.468;2022-12-24T06:03:38;-10.70;99.90
29341;DHT22;16337;59.536;13.468;2022-12-24T06:06:09;-10.60;99.90
29341;DHT22;16337;59.536;13.468;2022-12-24T06:08:44;-10.70;99.90
29341;DHT22;16337;59.536;13.468;2022-12-24T06:11:12;-10.70;99.90
29341;DHT22;16337;59.536;13.468;2022-12-24T06:13:39;-10.70;99.90
29341;DHT22;16337;59.536;13.468;2022-12-24T06:16:14;-10.70;99.90
29341;DHT22;16337;59.536;13.468;2022-12-24T06:18:41;-10.80;99.90
29341;DHT22;16337;59.536;13.468;2022-12-24T06:21:07;-10.80;99.90
29341;DHT22;16337;59.536;13.468;2022-12-24T06:23:35;-10.80;99.90
29341;DHT22;16337;59.536;13.468;2022-12-24T06:26:03;-10.80;99.90
29341;DHT22;16337;59.536;13.468;2022-12-24T06:28:31;-10.80;99.90
29341;DHT22;16337;59.536;13.468;2022-12-24T06:30:57;-10.80;99.90
29341;DHT22;16337;59.536;13.468;2022-12-24T06:33:23;-10.90;99.90
29341;DHT22;16337;59.536;13.468;2022-12-24T06:35:52;-10.90;99.90
29341;DHT22;16337;59.536;13.468;2022-12-24T06:38:17;-10.90;99.90
29341;DHT22;16337;59.536;13.468;2022-12-24T06:40:45;-10.90;99.90
29341;DHT22;16337;59.536;13.468;2022-12-24T06:43:12;-10.90;99.90
29341;DHT22;16337;59.536;13.468;2022-12-24T06:45:38;-11.00;99.90
29341;DHT22;16337;59.536;13.468;2022-12-24T06:48:04;-10.90;99.90
29341;DHT22;16337;59.536;13.468;2022-12-24T06:50:32;-11.00;99.90
29341;DHT22;16337;59.536;13.468;2022-12-24T06:53:00;-10.90;99.90
29341;DHT22;16337;59.536;13.468;2022-12-24T06:55:26;-11.00;99.90
29341;DHT22;16337;59.536;13.468;2022-12-24T06:57:52;-11.10;99.90
29341;DHT22;16337;59.536;13.468;2022-12-24T07:00:18;-11.20;99.90
29341;DHT22;16337;59.536;13.468;2022-12-24T07:02:44;-11.20;99.90
29341;DHT22;16337;59.536;13.468;2022-12-24T07:05:10;-11.20;99.90
29341;DHT22;16337;59.536;13.468;2022-12-24T07:07:37;-11.10;99.90
29341;DHT22;16337;59.536;13.468;2022-12-24T07:10:05;-11.10;99.90
29341;DHT22;16337;59.536;13.468;2022-12-24T07:12:31;-11.10;99.90
29341;DHT22;16337;59.536;13.468;2022-12-24T07:14:57;-11.10;99.90
29341;DHT22;16337;59.536;13.468;2022-12-24T07:17:28;-11.00;99.90
29341;DHT22;16337;59.536;13.468;2022-12-24T07:19:54;-11.00;99.90
29341;DHT22;16337;59.536;13.468;2022-12-24T07:22:23;-11.00;99.90
29341;DHT22;16337;59.536;13.468;2022-12-24T07:24:49;-11.00;99.90
29341;DHT22;16337;59.536;13.468;2022-12-24T07:27:50;-11.00;99.90
29341;DHT22;16337;59.536;13.468;2022-12-24T07:30:26;-11.00;99.90
29341;DHT22;16337;59.536;13.468;2022-12-24T07:32:52;-11.00;99.90
29341;DHT22;16337;59.536;13.468;2022-12-24T07:35:18;-11.10;99.90
29341;DHT22;16337;59.536;13.468;2022-12-24T07:37:43;-11.10;99.90
29341;DHT22;16337;59.536;13.468;2022-12-24T07:40:09;-11.10;99.90
29341;DHT22;16337;59.536;13.468;2022-12-24T07:42:35;-11.20;99.90
29341;DHT22;16337;59.536;13.468;2022-12-24T07:45:01;-11.30;99.90
29341;DHT22;16337;59.536;13.468;2022-12-24T07:47:27;-11.40;99.90
29341;DHT22;16337;59.536;13.468;2022-12-24T07:49:52;-11.30;99.90
29341;DHT22;16337;59.536;13.468;2022-12-24T07:52:18;-11.30;99.90
29341;DHT22;16337;59.536;13.468;2022-12-24T07:54:44;-11.30;99.90
29341;DHT22;16337;59.536;13.468;2022-12-24T07:57:09;-11.20;99.90
29341;DHT22;16337;59.536;13.468;2022-12-24T07:59:35;-11.20;99.90
29341;DHT22;16337;59.536;13.468;2022-12-24T08:02:03;-11.20;99.90
29341;DHT22;16337;59.536;13.468;2022-12-24T08:04:30;-11.20;99.90
29341;DHT22;16337;59.536;13.468;2022-12-24T08:06:57;-11.10;99.90
29341;DHT22;16337;59.536;13.468;2022-12-24T08:09:22;-11.20;99.90
29341;DHT22;16337;59.536;13.468;2022-12-24T08:11:48;-11.10;99.90
29341;DHT22;16337;59.536;13.468;2022-12-24T08:14:14;-11.10;99.90
29341;DHT22;16337;59.536;13.468;2022-12-24T08:16:43;-11.20;99.90
29341;DHT22;16337;59.536;13.468;2022-12-24T08:19:08;-11.20;99.90
29341;DHT22;16337;59.536;13.468;2022-12-24T08:21:34;-11.20;99.90
29341;DHT22;16337;59.536;13.468;2022-12-24T08:24:00;-11.10;99.90
29341;DHT22;16337;59.536;13.468;2022-12-24T08:26:25;-11.10;99.90
29341;DHT22;16337;59.536;13.468;2022-12-24T08:28:51;-11.10;99.90
29341;DHT22;16337;59.536;13.468;2022-12-24T08:31:17;-11.10;99.90
29341;DHT22;16337;59.536;13.468;2022-12-24T08:33:43;-11.10;99.90
29341;DHT22;16337;59.536;13.468;2022-12-24T08:36:08;-11.10;99.90
29341;DHT22;16337;59.536;13.468;2022-12-24T08:38:34;-11.00;99.90
29341;DHT22;16337;59.536;13.468;2022-12-24T08:41:00;-11.00;99.90
29341;DHT22;16337;59.536;13.468;2022-12-24T08:43:32;-11.00;99.90
29341;DHT22;16337;59.536;13.468;2022-12-24T08:46:02;-11.00;99.90
29341;DHT22;16337;59.536;13.468;2022-12-24T08:48:29;-10.90;99.90
29341;DHT22;16337;59.536;13.468;2022-12-24T08:50:55;-11.00;99.90
29341;DHT22;16337;59.536;13.468;2022-12-24T08:53:21;-10.90;99.90
29341;DHT22;16337;59.536;13.468;2022-12-24T08:55:46;-10.90;99.90
29341;DHT22;16337;59.536;13.468;2022-12-24T08:58:13;-10.90;99.90
29341;DHT22;16337;59.536;13.468;2022-12-24T09:00:39;-10.80;99.90
29341;DHT22;16337;59.536;13.468;2022-12-24T09:03:04;-10.80;99.90
29341;DHT22;16337;59.536;13.468;2022-12-24T09:05:33;-10.80;99.90
29341;DHT22;16337;59.536;13.468;2022-12-24T09:08:01;-10.80;99.90
29341;DHT22;16337;59.536;13.468;2022-12-24T09:10:27;-10.80;99.90
29341;DHT22;16337;59.536;13.468;2022-12-24T09:12:56;-10.80;99.90
29341;DHT22;16337;59.536;13.468;2022-12-24T09:15:22;-10.70;99.90
29341;DHT22;16337;59.536;13.468;2022-12-24T09:17:48;-10.70;99.90
29341;DHT22;16337;59.536;13.468;2022-12-24T09:20:13;-10.70;99.90
29341;DHT22;16337;59.536;13.468;2022-12-24T09:22:39;-10.70;99.90
29341;DHT22;16337;59.536;13.468;2022-12-24T09:25:05;-10.70;99.90
29341;DHT22;16337;59.536;13.468;2022-12-24T09:27:32;-10.70;99.90
29341;DHT22;16337;59.536;13.468;2022-12-24T09:30:07;-10.70;99.90
29341;DHT22;16337;59.536;13.468;2022-12-24T09:32:33;-10.70;99.90
29341;DHT22;16337;59.536;13.468;2022-12-24T09:34:59;-10.70;99.90
29341;DHT22;16337;59.536;13.468;2022-12-24T09:37:25;-10.70;99.90
29341;DHT22;16337;59.536;13.468;2022-12-24T09:39:51;-10.70;99.90
29341;DHT22;16337;59.536;13.468;2022-12-24T09:47:45;-10.40;99.90
29341;DHT22;16337;59.536;13.468;2022-12-24T09:50:33;-10.40;99.90
29341;DHT22;16337;59.536;13.468;2022-12-24T09:53:17;-10.40;99.90
29341;DHT22;16337;59.536;13.468;2022-12-24T09:55:54;-10.40;99.90
29341;DHT22;16337;59.536;13.468;2022-12-24T09:58:34;-10.40;99.90
29341;DHT22;16337;59.536;13.468;2022-12-24T10:01:01;-10.40;99.90
29341;DHT22;16337;59.536;13.468;2022-12-24T10:03:27;-10.40;99.90
29341;DHT22;16337;59.536;13.468;2022-12-24T10:06:10;-10.30;99.90
29341;DHT22;16337;59.536;13.468;2022-12-24T10:11:16;-10.30;99.90
29341;DHT22;16337;59.536;13.468;2022-12-24T10:24:59;-9.90;99.90
29341;DHT22;16337;59.536;13.468;2022-12-24T10:27:33;-9.90;99.90
29341;DHT22;16337;59.536;13.468;2022-12-24T10:30:05;-9.90;99.90
29341;DHT22;16337;59.536;13.468;2022-12-24T10:32:33;-9.90;99.90
29341;DHT22;16337;59.536;13.468;2022-12-24T10:37:46;-9.90;99.90
29341;DHT22;16337;59.536;13.468;2022-12-24T10:40:38;-9.90;99.90
29341;DHT22;16337;59.536;13.468;2022-12-24T10:43:24;-9.90;99.90
29341;DHT22;16337;59.536;13.468;2022-12-24T10:45:54;-9.80;99.90
29341;DHT22;16337;59.536;13.468;2022-12-24T10:48:35;-9.90;99.90
29341;DHT22;16337;59.536;13.468;2022-12-24T10:51:04;-9.90;99.90
29341;DHT22;16337;59.536;13.468;2022-12-24T10:53:44;-9.90;99.90
29341;DHT22;16337;59.536;13.468;2022-12-24T10:56:15;-9.80;99.90
29341;DHT22;16337;59.536;13.468;2022-12-24T10:58:59;-9.80;99.90
29341;DHT22;16337;59.536;13.468;2022-12-24T11:04:46;-9.70;99.90
29341;DHT22;16337;59.536;13.468;2022-12-24T11:07:19;-9.70;99.90
29341;DHT22;16337;59.536;13.468;2022-12-24T11:09:55;-9.70;99.90
29341;DHT22;16337;59.536;13.468;2022-12-24T11:12:23;-9.70;99.90
29341;DHT22;16337;59.536;13.468;2022-12-24T11:15:03;-9.70;99.90
29341;DHT22;16337;59.536;13.468;2022-12-24T11:17:30;-9.70;99.90
29341;DHT22;16337;59.536;13.468;2022-12-24T11:19:57;-9.70;99.90
29341;DHT22;16337;59.536;13.468;2022-12-24T11:22:32;-9.60;99.90
29341;DHT22;16337;59.536;13.468;2022-12-24T11:25:05;-9.70;99.90
29341;DHT22;16337;59.536;13.468;2022-12-24T11:27:42;-9.70;99.90
29341;DHT22;16337;59.536;13.468;2022-12-24T11:30:22;-9.70;99.90
29341;DHT22;16337;59.536;13.468;2022-12-24T11:33:16;-9.70;99.90
29341;DHT22;16337;59.536;13.468;2022-12-24T11:35:47;-9.60;99.90
29341;DHT22;16337;59.536;13.468;2022-12-24T11:38:21;-9.60;99.90
29341;DHT22;16337;59.536;13.468;2022-12-24T11:40:59;-9.60;99.90
29341;DHT22;16337;59.536;13.468;2022-12-24T11:43:25;-9.60;99.90
29341;DHT22;16337;59.536;13.468;2022-12-24T11:52:22;-9.60;99.90
29341;DHT22;16337;59.536;13.468;2022-12-24T11:54:26;-9.60;99.90
29341;DHT22;16337;59.536;13.468;2022-12-24T11:56:56;-9.50;99.90
29341;DHT22;16337;59.536;13.468;2022-12-24T11:59:40;-9.50;99.90
29341;DHT22;16337;59.536;13.468;2022-12-24T12:02:30;-9.50;99.90
29341;DHT22;16337;59.536;13.468;2022-12-24T12:05:31;-9.40;99.90
29341;DHT22;16337;59.536;13.468;2022-12-24T12:08:11;-9.40;99.90
29341;DHT22;16337;59.536;13.468;2022-12-24T12:10:46;-9.40;99.90
29341;DHT22;16337;59.536;13.468;2022-12-24T12:13:18;-9.40;99.90
29341;DHT22;16337;59.536;13.468;2022-12-24T12:18:45;-9.30;99.90
29341;DHT22;16337;59.536;13.468;2022-12-24T12:21:37;-9.30;99.90
29341;DHT22;16337;59.536;13.468;2022-12-24T12:24:45;-9.20;99.90
29341;DHT22;16337;59.536;13.468;2022-12-24T12:27:36;-9.10;99.90
29341;DHT22;16337;59.536;13.468;2022-12-24T12:30:14;-9.00;99.90
29341;DHT22;16337;59.536;13.468;2022-12-24T12:32:52;-8.80;99.90
29341;DHT22;16337;59.536;13.468;2022-12-24T12:37:59;-8.60;99.90
29341;DHT22;16337;59.536;13.468;2022-12-24T12:40:36;-8.50;99.90
29341;DHT22;16337;59.536;13.468;2022-12-24T12:43:17;-8.40;99.90
29341;DHT22;16337;59.536;13.468;2022-12-24T12:46:04;-8.20;99.90
29341;DHT22;16337;59.536;13.468;2022-12-24T12:51:27;-8.10;99.90
29341;DHT22;16337;59.536;13.468;2022-12-24T12:56:49;-8.00;99.90
29341;DHT22;16337;59.536;13.468;2022-12-24T12:59:39;-7.90;99.90
29341;DHT22;16337;59.536;13.468;2022-12-24T13:22:15;-7.70;99.90
29341;DHT22;16337;59.536;13.468;2022-12-24T13:24:52;-7.70;99.90
29341;DHT22;16337;59.536;13.468;2022-12-24T13:27:28;-7.60;99.90
29341;DHT22;16337;59.536;13.468;2022-12-24T13:32:53;-7.50;99.90
29341;DHT22;16337;59.536;13.468;2022-12-24T13:37:51;-7.40;99.90
29341;DHT22;16337;59.536;13.468;2022-12-24T13:40:27;-7.40;99.90
29341;DHT22;16337;59.536;13.468;2022-12-24T13:45:39;-7.30;99.90
29341;DHT22;16337;59.536;13.468;2022-12-24T13:50:49;-7.40;99.90
29341;DHT22;16337;59.536;13.468;2022-12-24T13:53:22;-7.40;99.90
29341;DHT22;16337;59.536;13.468;2022-12-24T13:58:49;-7.40;99.90
29341;DHT22;16337;59.536;13.468;2022-12-24T14:01:31;-7.40;99.90
29341;DHT22;16337;59.536;13.468;2022-12-24T14:16:16;-7.50;99.90
29341;DHT22;16337;59.536;13.468;2022-12-24T14:18:47;-7.50;99.90
29341;DHT22;16337;59.536;13.468;2022-12-24T14:21:36;-7.40;99.90
29341;DHT22;16337;59.536;13.468;2022-12-24T14:24:14;-7.40;99.90
29341;DHT22;16337;59.536;13.468;2022-12-24T14:26:47;-7.40;99.90
29341;DHT22;16337;59.536;13.468;2022-12-24T14:29:31;-7.40;99.90
29341;DHT22;16337;59.536;13.468;2022-12-24T14:32:00;-7.50;99.90
29341;DHT22;16337;59.536;13.468;2022-12-24T14:34:29;-7.50;99.90
29341;DHT22;16337;59.536;13.468;2022-12-24T14:36:55;-7.50;99.90
29341;DHT22;16337;59.536;13.468;2022-12-24T14:39:35;-7.50;99.90
29341;DHT22;16337;59.536;13.468;2022-12-24T14:48:28;-7.60;99.90
29341;DHT22;16337;59.536;13.468;2022-12-24T14:54:09;-7.70;99.90
29341;DHT22;16337;59.536;13.468;2022-12-24T14:56:37;-7.70;99.90
29341;DHT22;16337;59.536;13.468;2022-12-24T14:59:17;-7.70;99.90
29341;DHT22;16337;59.536;13.468;2022-12-24T15:01:43;-7.70;99.90
29341;DHT22;16337;59.536;13.468;2022-12-24T15:06:43;-7.50;99.90
29341;DHT22;16337;59.536;13.468;2022-12-24T15:11:49;-7.50;99.90
29341;DHT22;16337;59.536;13.468;2022-12-24T15:14:17;-7.50;99.90
29341;DHT22;16337;59.536;13.468;2022-12-24T15:16:58;-7.50;99.90
29341;DHT22;16337;59.536;13.468;2022-12-24T15:19:37;-7.40;99.90
29341;DHT22;16337;59.536;13.468;2022-12-24T15:22:27;-7.40;99.90
29341;DHT22;16337;59.536;13.468;2022-12-24T15:24:54;-7.30;99.90
29341;DHT22;16337;59.536;13.468;2022-12-24T15:27:23;-7.30;99.90
29341;DHT22;16337;59.536;13.468;2022-12-24T15:29:56;-7.30;99.90
29341;DHT22;16337;59.536;13.468;2022-12-24T15:32:22;-7.30;99.90
29341;DHT22;16337;59.536;13.468;2022-12-24T15:34:53;-7.30;99.90
29341;DHT22;16337;59.536;13.468;2022-12-24T15:40:07;-7.20;99.90
29341;DHT22;16337;59.536;13.468;2022-12-24T15:42:34;-7.20;99.90
29341;DHT22;16337;59.536;13.468;2022-12-24T15:47:41;-7.10;99.90
29341;DHT22;16337;59.536;13.468;2022-12-24T15:50:41;-7.10;99.90
29341;DHT22;16337;59.536;13.468;2022-12-24T15:53:16;-7.20;99.90
29341;DHT22;16337;59.536;13.468;2022-12-24T15:56:09;-7.30;99.90
29341;DHT22;16337;59.536;13.468;2022-12-24T15:58:41;-7.30;99.90
29341;DHT22;16337;59.536;13.468;2022-12-24T16:03:36;-7.30;99.90
29341;DHT22;16337;59.536;13.468;2022-12-24T16:06:06;-7.20;99.90
29341;DHT22;16337;59.536;13.468;2022-12-24T16:08:37;-7.10;99.90
29341;DHT22;16337;59.536;13.468;2022-12-24T16:13:34;-7.10;99.90
29341;DHT22;16337;59.536;13.468;2022-12-24T16:16:02;-7.10;99.90
29341;DHT22;16337;59.536;13.468;2022-12-24T16:18:41;-7.10;99.90
29341;DHT22;16337;59.536;13.468;2022-12-24T16:21:37;-7.20;99.90
29341;DHT22;16337;59.536;13.468;2022-12-24T16:24:22;-7.20;99.90
29341;DHT22;16337;59.536;13.468;2022-12-24T16:26:51;-7.30;99.90
29341;DHT22;16337;59.536;13.468;2022-12-24T16:29:20;-7.30;99.90
29341;DHT22;16337;59.536;13.468;2022-12-24T16:31:57;-7.30;99.90
29341;DHT22;16337;59.536;13.468;2022-12-24T16:34:28;-7.30;99.90
29341;DHT22;16337;59.536;13.468;2022-12-24T16:36:55;-7.30;99.90
29341;DHT22;16337;59.536;13.468;2022-12-24T16:39:32;-7.30;99.90
29341;DHT22;16337;59.536;13.468;2022-12-24T16:42:02;-7.30;99.90
29341;DHT22;16337;59.536;13.468;2022-12-24T16:44:47;-7.30;99.90
29341;DHT22;16337;59.536;13.468;2022-12-24T16:47:25;-7.30;99.90
29341;DHT22;16337;59.536;13.468;2022-12-24T16:49:51;-7.30;99.90
29341;DHT22;16337;59.536;13.468;2022-12-24T16:52:24;-7.30;99.90
29341;DHT22;16337;59.536;13.468;2022-12-24T16:54:54;-7.40;99.90
29341;DHT22;16337;59.536;13.468;2022-12-24T16:57:23;-7.40;99.90
29341;DHT22;16337;59.536;13.468;2022-12-24T16:59:50;-7.40;99.90
29341;DHT22;16337;59.536;13.468;2022-12-24T17:02:21;-7.30;99.90
29341;DHT22;16337;59.536;13.468;2022-12-24T17:04:50;-7.30;99.90
29341;DHT22;16337;59.536;13.468;2022-12-24T17:07:18;-7.30;99.90
29341;DHT22;16337;59.536;13.468;2022-12-24T17:09:47;-7.30;99.90
29341;DHT22;16337;59.536;13.468;2022-12-24T17:12:13;-7.20;99.90
29341;DHT22;16337;59.536;13.468;2022-12-24T17:14:39;-7.20;99.90
29341;DHT22;16337;59.536;13.468;2022-12-24T17:17:18;-7.30;99.90
29341;DHT22;16337;59.536;13.468;2022-12-24T17:19:45;-7.30;99.90
29341;DHT22;16337;59.536;13.468;2022-12-24T17:22:14;-7.40;99.90
29341;DHT22;16337;59.536;13.468;2022-12-24T17:24:42;-7.40;99.90
29341;DHT22;16337;59.536;13.468;2022-12-24T17:27:08;-7.30;99.90
29341;DHT22;16337;59.536;13.468;2022-12-24T17:29:34;-7.30;99.90
29341;DHT22;16337;59.536;13.468;2022-12-24T17:31:59;-7.20;99.90
29341;DHT22;16337;59.536;13.468;2022-12-24T17:34:25;-7.20;99.90
29341;DHT22;16337;59.536;13.468;2022-12-24T17:36:51;-7.20;99.90
29341;DHT22;16337;59.536;13.468;2022-12-24T17:39:17;-7.20;99.90
29341;DHT22;16337;59.536;13.468;2022-12-24T17:41:43;-7.20;99.90
29341;DHT22;16337;59.536;13.468;2022-12-24T17:44:14;-7.20;99.90
29341;DHT22;16337;59.536;13.468;2022-12-24T17:46:45;-7.20;99.90